Pittston Township, Pennsylvania
Current Conditions -  °F | °C
As of 6:54 PM on Monday 24 Nov 2014 (Local Time) from KAVP Reporting Station
Clear Clear  
Wind Chill: 64°   Ceiling: Unl
Heat Index: 64°   Visibility: 10mi
Dew Point: 51°   Wind: 21mph
Humidity: 63%   Direction: 190°S
Pressure: 29.58"   Gusts: 29mph
Location:  41.2973°N, 75.7399°W
Report Text: KAVP 242354Z 19018G25KT 160V230 10SM CLR 18/11 A2958 RMK AO2 PK WND 19032/2314 SLP012 T01780106 10211 20178 51025
Loading
Personal Weather Stations






























Interactive Weather Map New forecast layout! Learn more

10-Day Weather Forecast

Advertisements
Track Severe Weather on mobile